createdAt,value
2022-10-05T00:01:01.632Z,100399.11
2022-10-05T00:03:36.848Z,100401.34
2022-10-05T00:06:12.350Z,100405.45
2022-10-05T00:08:45.262Z,100400.81
2022-10-05T00:11:19.292Z,100404.13
2022-10-05T00:13:53.088Z,100406.04
2022-10-05T00:16:26.146Z,100407.34
2022-10-05T00:19:00.361Z,100402.92
2022-10-05T00:21:34.807Z,100408.64
2022-10-05T00:24:10.545Z,100416.47
2022-10-05T00:26:43.525Z,100411.53
2022-10-05T00:29:23.366Z,100410.13
2022-10-05T00:31:56.618Z,100414.35
2022-10-05T00:34:30.678Z,100414.16
2022-10-05T00:37:05.925Z,100418.28
2022-10-05T00:39:41.518Z,100418.28
2022-10-05T00:42:43.534Z,100420.78
2022-10-05T00:45:27.638Z,100424.28
2022-10-05T00:48:26.353Z,100428.50
2022-10-05T00:51:18.614Z,100428.98
2022-10-05T00:54:18.220Z,100428.50
2022-10-05T00:57:20.292Z,100427.23
2022-10-05T01:00:15.889Z,100430.80
2022-10-05T01:03:06.220Z,100431.69
2022-10-05T01:05:52.291Z,100433.51
2022-10-05T01:09:01.168Z,100434.30
2022-10-05T01:12:00.751Z,100432.00
2022-10-05T01:14:56.887Z,100440.43
2022-10-05T01:17:46.769Z,100438.71
2022-10-05T01:20:25.007Z,100440.43
2022-10-05T01:23:27.694Z,100448.25
2022-10-05T01:26:38.873Z,100447.52
2022-10-05T01:29:37.734Z,100450.85
2022-10-05T01:32:37.887Z,100448.73
2022-10-05T01:35:50.364Z,100453.71
2022-10-05T01:38:49.297Z,100462.97
2022-10-05T01:41:59.052Z,100471.77
2022-10-05T01:44:36.625Z,100476.81
2022-10-05T01:47:28.897Z,100482.61
2022-10-05T01:50:33.340Z,100478.70
2022-10-05T01:53:30.095Z,100478.59
2022-10-05T01:56:32.608Z,100484.63
2022-10-05T01:59:22.110Z,100489.13
2022-10-05T02:02:00.455Z,100488.72
2022-10-05T02:05:01.600Z,100485.73
2022-10-05T02:07:27.531Z,100495.64
2022-10-05T02:10:15.058Z,100496.70
2022-10-05T02:12:50.447Z,100501.44
2022-10-05T02:15:28.431Z,100502.47
2022-10-05T02:18:06.063Z,100505.28
2022-10-05T02:20:41.616Z,100507.98
2022-10-05T02:23:19.269Z,100509.77
2022-10-05T02:25:54.232Z,100507.67
2022-10-05T02:28:49.774Z,100513.68
2022-10-05T02:31:48.097Z,100506.95
2022-10-05T02:34:40.056Z,100515.59
2022-10-05T02:37:55.265Z,100521.05
2022-10-05T02:40:45.199Z,100522.28
2022-10-05T02:43:41.771Z,100526.36
2022-10-05T02:46:34.548Z,100535.27
2022-10-05T02:49:41.866Z,100535.58
2022-10-05T02:52:31.831Z,100528.07
2022-10-05T02:55:10.630Z,100531.26
2022-10-05T02:58:15.408Z,100526.05
2022-10-05T03:01:21.844Z,100535.16
2022-10-05T03:04:15.250Z,100546.78
2022-10-05T03:07:19.321Z,100547.67
2022-10-05T03:10:40.150Z,100550.17
2022-10-05T03:13:29.554Z,100565.22
2022-10-05T03:16:22.236Z,100569.43
2022-10-05T03:19:23.606Z,100570.01
2022-10-05T03:22:07.589Z,100574.02
2022-10-05T03:25:08.385Z,100576.32
2022-10-05T03:28:21.190Z,100573.82
2022-10-05T03:31:07.659Z,100573.45
2022-10-05T03:34:09.932Z,100576.42
2022-10-05T03:36:58.458Z,100580.74
2022-10-05T03:39:41.917Z,100568.61
2022-10-05T03:42:34.406Z,100561.31
2022-10-05T03:45:31.245Z,100556.10
2022-10-05T03:48:15.750Z,100551.20
2022-10-05T03:51:15.919Z,100555.27
2022-10-05T03:53:58.898Z,100550.88
2022-10-05T03:56:49.497Z,100546.56
2022-10-05T03:59:32.801Z,100548.28
2022-10-05T04:02:08.756Z,100551.98
2022-10-05T04:04:52.477Z,100556.89
2022-10-05T04:07:47.705Z,100569.61
2022-10-05T04:10:29.181Z,100580.66
2022-10-05T04:13:16.318Z,100580.14
2022-10-05T04:16:03.539Z,100566.83
2022-10-05T04:18:46.882Z,100565.01
2022-10-05T04:21:51.734Z,100567.20
2022-10-05T04:24:36.618Z,100564.40
2022-10-05T04:27:22.887Z,100562.61
2022-10-05T04:30:16.596Z,100561.31
2022-10-05T04:32:58.467Z,100566.94
2022-10-05T04:35:57.709Z,100568.63
2022-10-05T04:39:05.510Z,100566.94
2022-10-05T04:42:08.810Z,100574.45
2022-10-05T04:44:59.065Z,100581.08
2022-10-05T04:47:53.481Z,100597.22
2022-10-05T04:50:46.198Z,100599.16
2022-10-05T04:53:35.335Z,100604.00
2022-10-05T04:56:31.195Z,100604.73
2022-10-05T04:59:31.227Z,100615.79
2022-10-05T05:02:28.737Z,100614.08
2022-10-05T05:05:34.596Z,100614.28
2022-10-05T05:08:36.559Z,100620.64
2022-10-05T05:11:35.664Z,100629.17
2022-10-05T05:14:30.911Z,100623.16
2022-10-05T05:17:34.136Z,100630.39
2022-10-05T05:20:44.191Z,100619.31
2022-10-05T05:23:44.587Z,100626.95
2022-10-05T05:26:27.839Z,100635.48
2022-10-05T05:29:11.483Z,100633.15
2022-10-05T05:32:04.234Z,100640.36
2022-10-05T05:35:09.329Z,100649.06
2022-10-05T05:38:07.998Z,100655.77
2022-10-05T05:40:53.174Z,100658.77
2022-10-05T05:43:38.910Z,100663.48
2022-10-05T05:46:58.213Z,100669.10
2022-10-05T05:49:32.421Z,100670.06
2022-10-05T05:52:15.785Z,100672.36
2022-10-05T05:54:53.913Z,100676.38
2022-10-05T05:57:37.673Z,100674.94
2022-10-05T06:00:21.999Z,100677.03
2022-10-05T06:03:38.946Z,100682.13
2022-10-05T06:06:17.393Z,100675.36
2022-10-05T06:09:10.440Z,100675.83
2022-10-05T06:11:57.352Z,100677.52
2022-10-05T06:15:01.916Z,100672.14
2022-10-05T06:17:48.674Z,100666.98
2022-10-05T06:20:52.706Z,100668.43
2022-10-05T06:23:38.830Z,100663.14
2022-10-05T06:26:28.401Z,100661.40
2022-10-05T06:29:05.479Z,100655.18
2022-10-05T06:31:45.749Z,100657.03
2022-10-05T06:34:50.517Z,100661.02
2022-10-05T06:37:58.083Z,100659.64
2022-10-05T06:41:07.110Z,100662.28
2022-10-05T06:44:09.370Z,100658.28
2022-10-05T06:47:11.209Z,100658.81
2022-10-05T06:50:21.771Z,100667.70
2022-10-05T06:53:18.639Z,100670.63
2022-10-05T06:56:08.554Z,100681.88
2022-10-05T06:58:52.308Z,100675.78
2022-10-05T07:01:58.866Z,100675.62
2022-10-05T07:05:04.315Z,100679.72
2022-10-05T07:08:02.360Z,100679.17
2022-10-05T07:10:59.457Z,100676.05
2022-10-05T07:14:07.750Z,100679.42
2022-10-05T07:17:07.687Z,100676.63
2022-10-05T07:19:55.099Z,100678.36
2022-10-05T07:22:44.805Z,100679.75
2022-10-05T07:25:44.283Z,100682.36
2022-10-05T07:28:40.638Z,100682.38
2022-10-05T07:31:42.696Z,100675.22
2022-10-05T07:34:49.747Z,100686.05
2022-10-05T07:37:54.019Z,100677.10
2022-10-05T07:40:33.265Z,100679.16
2022-10-05T07:44:00.948Z,100675.42
2022-10-05T07:46:27.182Z,100669.69
2022-10-05T07:49:35.824Z,100672.62
2022-10-05T07:52:34.348Z,100677.03
2022-10-05T07:55:06.494Z,100671.59
2022-10-05T07:58:07.218Z,100684.95
2022-10-05T08:00:59.176Z,100670.17
2022-10-05T08:03:58.187Z,100673.38
2022-10-05T08:06:55.128Z,100672.56
2022-10-05T08:09:55.240Z,100676.70
2022-10-05T08:12:41.205Z,100675.64
2022-10-05T08:15:21.033Z,100678.42
2022-10-05T08:18:19.693Z,100669.39
2022-10-05T08:20:56.267Z,100670.54
2022-10-05T08:23:39.092Z,100671.66
2022-10-05T08:26:37.896Z,100670.72
2022-10-05T08:29:50.391Z,100670.45
2022-10-05T08:32:30.653Z,100672.48
2022-10-05T08:35:34.209Z,100671.86
2022-10-05T08:38:18.839Z,100666.83
2022-10-05T08:40:57.043Z,100672.73
2022-10-05T08:44:12.099Z,100666.30
2022-10-05T08:47:07.250Z,100661.94
2022-10-05T08:50:04.209Z,100670.50
2022-10-05T08:53:16.854Z,100679.61
2022-10-05T08:56:38.795Z,100681.53
2022-10-05T08:59:38.487Z,100679.40
2022-10-05T09:02:32.651Z,100676.09
2022-10-05T09:05:31.660Z,100678.09
2022-10-05T09:08:51.648Z,100672.23
2022-10-05T09:12:00.182Z,100678.52
2022-10-05T09:14:56.626Z,100670.34
2022-10-05T09:17:39.434Z,100666.16
2022-10-05T09:20:32.609Z,100666.83
2022-10-05T09:23:37.364Z,100667.53
2022-10-05T09:26:31.956Z,100669.88
2022-10-05T09:29:20.868Z,100671.47
2022-10-05T09:32:16.366Z,100670.75
2022-10-05T09:35:16.860Z,100670.89
2022-10-05T09:38:16.975Z,100670.18
2022-10-05T09:41:06.622Z,100680.09
2022-10-05T09:44:17.210Z,100678.55
2022-10-05T09:47:17.067Z,100685.34
2022-10-05T09:50:00.402Z,100678.76
2022-10-05T09:53:02.331Z,100684.09
2022-10-05T09:56:05.560Z,100688.50
2022-10-05T09:58:58.434Z,100680.41
2022-10-05T10:02:10.143Z,100682.95
2022-10-05T10:05:06.088Z,100688.63
2022-10-05T10:08:29.110Z,100691.09
2022-10-05T10:11:32.720Z,100692.68
2022-10-05T10:14:25.218Z,100693.01
2022-10-05T10:17:11.430Z,100687.94
2022-10-05T10:20:04.550Z,100690.63
2022-10-05T10:23:03.594Z,100695.77
2022-10-05T10:25:46.976Z,100684.91
2022-10-05T10:28:53.435Z,100692.97
2022-10-05T10:31:53.774Z,100688.03
2022-10-05T10:35:04.383Z,100684.08
2022-10-05T10:37:43.293Z,100686.16
2022-10-05T10:40:35.964Z,100687.80
2022-10-05T10:43:53.233Z,100691.16
2022-10-05T10:46:49.394Z,100694.12
2022-10-05T10:49:36.522Z,100689.86
2022-10-05T10:52:29.011Z,100685.09
2022-10-05T10:55:31.134Z,100689.59
2022-10-05T10:58:12.353Z,100692.42
2022-10-05T11:01:08.477Z,100695.13
2022-10-05T11:04:01.349Z,100690.31
2022-10-05T11:06:54.555Z,100693.81
2022-10-05T11:09:46.738Z,100693.25
2022-10-05T11:13:02.971Z,100687.55
2022-10-05T11:15:58.831Z,100682.28
2022-10-05T11:18:54.383Z,100680.01
2022-10-05T11:21:32.221Z,100685.28
2022-10-05T11:24:23.944Z,100679.31
2022-10-05T11:27:08.608Z,100680.81
2022-10-05T11:30:11.640Z,100680.58
2022-10-05T11:33:10.035Z,100679.45
2022-10-05T11:36:09.431Z,100677.89
2022-10-05T11:38:59.620Z,100678.84
2022-10-05T11:42:09.476Z,100673.84
2022-10-05T11:45:25.458Z,100674.58
2022-10-05T11:48:31.434Z,100668.63
2022-10-05T11:51:28.713Z,100675.84
2022-10-05T11:54:08.418Z,100683.13
2022-10-05T11:56:57.151Z,100677.73
2022-10-05T11:59:46.318Z,100682.55
2022-10-05T12:02:48.224Z,100677.55
2022-10-05T12:05:51.608Z,100677.09
2022-10-05T12:08:38.506Z,100674.77
2022-10-05T12:11:32.747Z,100666.80
2022-10-05T12:14:16.655Z,100662.93
2022-10-05T12:17:28.698Z,100660.30
2022-10-05T12:20:28.902Z,100662.10
2022-10-05T12:23:18.126Z,100664.37
2022-10-05T12:26:06.781Z,100669.43
2022-10-05T12:29:08.988Z,100668.23
2022-10-05T12:31:49.450Z,100675.22
2022-10-05T12:34:44.802Z,100678.72
2022-10-05T12:37:40.659Z,100678.60
2022-10-05T12:40:46.959Z,100680.63
2022-10-05T12:43:51.281Z,100682.62
2022-10-05T12:46:35.024Z,100678.72
2022-10-05T12:49:27.187Z,100678.00
2022-10-05T12:52:02.388Z,100687.93
2022-10-05T12:55:01.879Z,100691.36
2022-10-05T12:57:46.181Z,100698.65
2022-10-05T13:00:23.200Z,100692.82
2022-10-05T13:03:03.473Z,100695.52
2022-10-05T13:05:45.065Z,100686.85
2022-10-05T13:08:53.365Z,100690.87
2022-10-05T13:11:45.901Z,100696.97
2022-10-05T13:14:46.175Z,100689.79
2022-10-05T13:17:35.495Z,100693.68
2022-10-05T13:20:28.438Z,100695.33
2022-10-05T13:23:37.953Z,100700.90
2022-10-05T13:26:18.602Z,100701.20
2022-10-05T13:29:33.609Z,100704.53
2022-10-05T13:32:10.565Z,100703.58
2022-10-05T13:35:11.269Z,100708.71
2022-10-05T13:38:01.943Z,100713.03
2022-10-05T13:40:39.437Z,100715.03
2022-10-05T13:43:39.704Z,100716.72
2022-10-05T13:46:33.388Z,100707.00
2022-10-05T13:49:32.817Z,100708.19
2022-10-05T13:52:54.741Z,100708.48
2022-10-05T13:55:52.862Z,100709.23
2022-10-05T13:58:39.235Z,100704.69
2022-10-05T14:01:37.756Z,100713.34
2022-10-05T14:04:46.196Z,100712.78
2022-10-05T14:08:05.248Z,100714.39
2022-10-05T14:10:44.751Z,100717.69
2022-10-05T14:13:37.344Z,100719.19
2022-10-05T14:16:26.967Z,100712.47
2022-10-05T14:19:07.187Z,100722.47
2022-10-05T14:22:08.965Z,100721.41
2022-10-05T14:25:10.384Z,100722.13
2022-10-05T14:28:32.037Z,100725.44
2022-10-05T14:31:17.564Z,100722.59
2022-10-05T14:33:51.381Z,100734.12
2022-10-05T14:36:40.259Z,100730.81
2022-10-05T14:39:15.160Z,100731.92
2022-10-05T14:41:50.901Z,100738.71
2022-10-05T14:44:35.103Z,100742.83
2022-10-05T14:47:23.627Z,100747.80
2022-10-05T14:50:13.778Z,100751.00
2022-10-05T14:53:08.552Z,100744.88
2022-10-05T14:56:19.446Z,100758.58
2022-10-05T14:59:23.561Z,100762.22
2022-10-05T15:02:17.833Z,100759.14
2022-10-05T15:05:03.940Z,100766.19
2022-10-05T15:07:48.478Z,100771.53
2022-10-05T15:10:35.918Z,100772.96
2022-10-05T15:13:21.918Z,100777.52
2022-10-05T15:16:05.928Z,100772.77
2022-10-05T15:18:53.143Z,100776.55
2022-10-05T15:21:54.334Z,100774.50
2022-10-05T15:24:32.128Z,100789.22
2022-10-05T15:27:06.888Z,100792.11
2022-10-05T15:30:08.085Z,100788.09
2022-10-05T15:33:00.458Z,100791.95
2022-10-05T15:35:43.712Z,100796.31
2022-10-05T15:38:26.029Z,100801.95
2022-10-05T15:41:18.881Z,100797.55
2022-10-05T15:44:06.132Z,100804.50
2022-10-05T15:46:48.170Z,100812.38
2022-10-05T15:49:33.172Z,100815.59
2022-10-05T15:52:24.073Z,100811.66
2022-10-05T15:55:27.852Z,100824.44
2022-10-05T15:58:38.937Z,100826.18
2022-10-05T16:01:34.237Z,100818.14
2022-10-05T16:04:40.654Z,100822.42
2022-10-05T16:07:36.192Z,100822.34
2022-10-05T16:10:24.402Z,100829.95
2022-10-05T16:13:27.300Z,100825.77
2022-10-05T16:16:26.249Z,100820.27
2022-10-05T16:19:12.823Z,100820.45
2022-10-05T16:22:08.430Z,100825.92
2022-10-05T16:25:10.292Z,100827.58
2022-10-05T16:27:48.224Z,100826.18
2022-10-05T16:30:24.410Z,100828.38
2022-10-05T16:33:30.698Z,100824.86
2022-10-05T16:36:25.641Z,100820.42
2022-10-05T16:39:29.307Z,100821.27
2022-10-05T16:42:14.532Z,100816.36
2022-10-05T16:45:09.822Z,100822.97
2022-10-05T16:48:27.651Z,100829.14
2022-10-05T16:51:37.869Z,100836.68
2022-10-05T16:54:31.875Z,100843.16
2022-10-05T16:57:21.738Z,100840.80
2022-10-05T17:00:28.855Z,100849.00
2022-10-05T17:03:18.511Z,100851.21
2022-10-05T17:06:22.367Z,100851.72
2022-10-05T17:09:06.967Z,100849.17
2022-10-05T17:12:16.310Z,100857.05
2022-10-05T17:14:59.947Z,100857.77
2022-10-05T17:18:15.024Z,100869.84
2022-10-05T17:21:05.528Z,100873.52
2022-10-05T17:23:54.788Z,100872.85
2022-10-05T17:26:54.870Z,100875.48
2022-10-05T17:29:52.212Z,100877.52
2022-10-05T17:32:37.488Z,100875.39
2022-10-05T17:35:18.803Z,100881.45
2022-10-05T17:38:35.423Z,100882.29
2022-10-05T17:41:28.508Z,100886.95
2022-10-05T17:44:24.691Z,100891.05
2022-10-05T17:47:04.117Z,100896.38
2022-10-05T17:50:13.759Z,100889.47
2022-10-05T17:53:05.822Z,100891.50
2022-10-05T17:55:46.345Z,100895.69
2022-10-05T17:58:32.840Z,100900.21
2022-10-05T18:01:17.387Z,100894.97
2022-10-05T18:03:52.639Z,100897.97
2022-10-05T18:06:34.250Z,100893.56
2022-10-05T18:09:23.571Z,100897.80
2022-10-05T18:12:26.035Z,100900.25
2022-10-05T18:15:08.405Z,100900.91
2022-10-05T18:17:51.790Z,100905.56
2022-10-05T18:20:31.877Z,100902.17
2022-10-05T18:23:13.249Z,100904.14
2022-10-05T18:26:12.627Z,100910.52
2022-10-05T18:29:49.680Z,100910.17
2022-10-05T18:32:53.638Z,100915.95
2022-10-05T18:36:09.081Z,100918.06
2022-10-05T18:39:05.209Z,100917.98
2022-10-05T18:42:20.744Z,100918.36
2022-10-05T18:45:30.236Z,100925.15
2022-10-05T18:48:30.358Z,100923.39
2022-10-05T18:51:35.832Z,100921.14
2022-10-05T18:54:24.051Z,100924.25
2022-10-05T18:56:57.523Z,100930.02
2022-10-05T18:59:46.670Z,100923.61
2022-10-05T19:02:51.581Z,100930.39
2022-10-05T19:05:49.922Z,100931.52
2022-10-05T19:08:54.480Z,100943.53
2022-10-05T19:11:44.004Z,100937.69
2022-10-05T19:14:46.020Z,100944.47
2022-10-05T19:17:28.921Z,100946.09
2022-10-05T19:20:26.098Z,100946.99
2022-10-05T19:23:28.875Z,100944.69
2022-10-05T19:26:16.387Z,100947.12
2022-10-05T19:29:07.392Z,100951.34
2022-10-05T19:32:03.135Z,100953.06
2022-10-05T19:34:50.737Z,100957.80
2022-10-05T19:37:34.174Z,100958.63
2022-10-05T19:40:33.868Z,100961.15
2022-10-05T19:43:38.897Z,100954.89
2022-10-05T19:46:38.017Z,100960.03
2022-10-05T19:49:12.152Z,100961.15
2022-10-05T19:51:52.593Z,100960.99
2022-10-05T19:54:29.679Z,100959.48
2022-10-05T19:57:03.194Z,100955.84
2022-10-05T19:59:37.973Z,100945.59
2022-10-05T20:02:13.212Z,100953.87
2022-10-05T20:04:49.818Z,100954.57
2022-10-05T20:07:23.895Z,100957.50
2022-10-05T20:10:27.283Z,100958.42
2022-10-05T20:13:07.680Z,100962.48
2022-10-05T20:15:59.135Z,100966.11
2022-10-05T20:19:03.079Z,100967.70
2022-10-05T20:21:51.367Z,100966.30
2022-10-05T20:24:29.688Z,100964.59
2022-10-05T20:27:06.032Z,100966.22
2022-10-05T20:29:44.347Z,100969.84
2022-10-05T20:32:19.043Z,100969.17
2022-10-05T20:34:52.835Z,100969.34
2022-10-05T20:37:26.578Z,100969.56
2022-10-05T20:39:59.515Z,100972.77
2022-10-05T20:42:33.274Z,100987.58
2022-10-05T20:45:07.735Z,100981.55
2022-10-05T20:47:42.435Z,100987.58
2022-10-05T20:50:16.488Z,100994.02
2022-10-05T20:52:50.069Z,100993.71
2022-10-05T20:55:23.058Z,100996.64
2022-10-05T20:57:57.021Z,100999.05
2022-10-05T21:00:34.047Z,101001.56
2022-10-05T21:03:06.490Z,101003.98
2022-10-05T21:05:39.693Z,101006.08
2022-10-05T21:08:12.763Z,101005.98
2022-10-05T21:10:45.818Z,101000.16
2022-10-05T21:13:18.893Z,101002.67
2022-10-05T21:15:51.810Z,100995.72
2022-10-05T21:18:25.293Z,100990.91
2022-10-05T21:21:02.088Z,100993.63
2022-10-05T21:23:36.310Z,100992.80
2022-10-05T21:26:09.315Z,100992.31
2022-10-05T21:28:43.134Z,100994.94
2022-10-05T21:31:15.874Z,100993.21
2022-10-05T21:33:48.913Z,100994.11
2022-10-05T21:36:24.754Z,101000.27
2022-10-05T21:38:58.058Z,101004.19
2022-10-05T21:41:30.923Z,101002.27
2022-10-05T21:44:04.444Z,100999.44
2022-10-05T21:46:38.055Z,101002.58
2022-10-05T21:49:11.186Z,101003.16
2022-10-05T21:51:45.090Z,100998.41
2022-10-05T21:54:21.089Z,101003.55
2022-10-05T21:56:56.091Z,101005.23
2022-10-05T21:59:32.733Z,100998.69
2022-10-05T22:02:06.263Z,100994.91
2022-10-05T22:04:39.008Z,101000.83
2022-10-05T22:07:20.302Z,101002.41
2022-10-05T22:09:53.793Z,101005.44
2022-10-05T22:12:27.005Z,101001.82
2022-10-05T22:15:00.264Z,101007.94
2022-10-05T22:17:33.561Z,101008.84
2022-10-05T22:20:07.914Z,101007.94
2022-10-05T22:22:40.900Z,101007.73
2022-10-05T22:25:14.416Z,101005.53
2022-10-05T22:27:47.438Z,101010.14
2022-10-05T22:30:20.528Z,101005.70
2022-10-05T22:32:53.813Z,101005.91
2022-10-05T22:35:27.034Z,101009.30
2022-10-05T22:37:59.667Z,101007.30
2022-10-05T22:40:32.659Z,101002.86
2022-10-05T22:43:06.035Z,101007.58
2022-10-05T22:45:38.890Z,101008.77
2022-10-05T22:48:12.313Z,101012.21
2022-10-05T22:50:49.580Z,101012.11
2022-10-05T22:53:22.872Z,101015.30
2022-10-05T22:55:55.830Z,101012.89
2022-10-05T22:58:29.392Z,101018.31
2022-10-05T23:01:08.777Z,101013.56
2022-10-05T23:03:42.302Z,101017.00
2022-10-05T23:06:21.459Z,101011.25
2022-10-05T23:08:55.338Z,101010.84
2022-10-05T23:11:31.650Z,101003.11
2022-10-05T23:14:04.387Z,101000.91
2022-10-05T23:16:37.393Z,100999.50
2022-10-05T23:19:12.636Z,101003.31
2022-10-05T23:21:46.088Z,101003.52
2022-10-05T23:24:19.514Z,101004.09
2022-10-05T23:26:52.390Z,101002.56
2022-10-05T23:29:25.205Z,101009.88
2022-10-05T23:31:58.550Z,101004.97
2022-10-05T23:34:31.547Z,101007.88
2022-10-05T23:37:04.568Z,101000.72
2022-10-05T23:39:37.593Z,100998.94
2022-10-05T23:42:10.841Z,100993.98
2022-10-05T23:44:43.674Z,100997.90
2022-10-05T23:47:16.995Z,101000.23
2022-10-05T23:49:49.844Z,101000.34
2022-10-05T23:52:23.260Z,100999.53
2022-10-05T23:54:56.535Z,101004.27
2022-10-05T23:57:29.559Z,101012.09
